createdAt,value
2023-05-20T00:00:48.459Z,2.53
2023-05-20T00:03:16.534Z,2.57
2023-05-20T00:05:44.342Z,2.40
2023-05-20T00:08:11.985Z,2.63
2023-05-20T00:10:39.820Z,2.70
2023-05-20T00:13:07.670Z,2.63
2023-05-20T00:15:35.894Z,2.13
2023-05-20T00:18:03.756Z,2.90
2023-05-20T00:20:34.025Z,3.07
2023-05-20T00:23:01.656Z,3.10
2023-05-20T00:25:29.212Z,2.90
2023-05-20T00:27:56.822Z,2.53
2023-05-20T00:30:24.362Z,2.83
2023-05-20T00:32:52.020Z,2.87
2023-05-20T00:35:19.639Z,3.00
2023-05-20T00:37:47.298Z,3.23
2023-05-20T00:40:15.703Z,2.77
2023-05-20T00:42:43.864Z,2.40
2023-05-20T00:45:11.722Z,2.93
2023-05-20T00:47:39.622Z,3.00
2023-05-20T00:50:08.104Z,2.43
2023-05-20T00:52:35.932Z,2.27
2023-05-20T00:55:03.810Z,2.70
2023-05-20T00:57:31.514Z,2.80
2023-05-20T00:59:59.114Z,2.70
2023-05-20T01:02:26.789Z,2.43
2023-05-20T01:04:55.076Z,2.63
2023-05-20T01:07:22.865Z,2.17
2023-05-20T01:09:50.410Z,2.83
2023-05-20T01:12:26.920Z,2.70
2023-05-20T01:14:58.550Z,3.43
2023-05-20T01:17:27.349Z,2.73
2023-05-20T01:19:55.239Z,2.60
2023-05-20T01:22:26.732Z,3.00
2023-05-20T01:24:54.330Z,3.13
2023-05-20T01:27:22.451Z,2.90
2023-05-20T01:29:50.905Z,2.80
2023-05-20T01:32:18.390Z,3.40
2023-05-20T01:34:49.029Z,3.40
2023-05-20T01:37:17.728Z,2.63
2023-05-20T01:39:45.897Z,3.80
2023-05-20T01:42:14.386Z,3.97
2023-05-20T01:44:42.018Z,3.50
2023-05-20T01:47:09.765Z,2.87
2023-05-20T01:49:37.330Z,2.70
2023-05-20T01:52:05.391Z,3.57
2023-05-20T01:54:32.929Z,2.83
2023-05-20T01:57:00.758Z,2.13
2023-05-20T01:59:28.309Z,3.10
2023-05-20T02:01:55.973Z,3.10
2023-05-20T02:04:23.574Z,3.00
2023-05-20T02:06:51.216Z,3.50
2023-05-20T02:09:19.209Z,3.10
2023-05-20T02:11:46.790Z,2.97
2023-05-20T02:14:14.547Z,2.07
2023-05-20T02:16:42.182Z,3.13
2023-05-20T02:19:09.791Z,2.70
2023-05-20T02:21:37.430Z,2.90
2023-05-20T02:24:05.132Z,2.77
2023-05-20T02:26:32.745Z,3.17
2023-05-20T02:29:00.319Z,3.47
2023-05-20T02:31:28.013Z,2.67
2023-05-20T02:33:55.555Z,3.67
2023-05-20T02:36:23.192Z,3.07
2023-05-20T02:38:50.708Z,2.90
2023-05-20T02:41:18.284Z,3.47
2023-05-20T02:43:45.815Z,3.23
2023-05-20T02:46:13.436Z,3.07
2023-05-20T02:48:41.014Z,3.03
2023-05-20T02:51:08.610Z,3.60
2023-05-20T02:53:36.171Z,3.30
2023-05-20T02:56:06.748Z,3.40
2023-05-20T02:58:34.372Z,3.53
2023-05-20T03:01:02.446Z,2.80
2023-05-20T03:03:30.062Z,4.13
2023-05-20T03:05:57.691Z,3.27
2023-05-20T03:08:25.321Z,4.07
2023-05-20T03:10:52.881Z,3.90
2023-05-20T03:13:20.529Z,4.20
2023-05-20T03:15:48.111Z,4.17
2023-05-20T03:18:15.722Z,3.67
2023-05-20T03:20:43.314Z,3.27
2023-05-20T03:23:11.109Z,2.83
2023-05-20T03:25:39.364Z,3.10
2023-05-20T03:28:07.176Z,2.37
2023-05-20T03:30:34.717Z,2.30
2023-05-20T03:33:02.450Z,2.53
2023-05-20T03:35:30.201Z,2.83
2023-05-20T03:37:57.911Z,2.97
2023-05-20T03:40:25.509Z,2.80
2023-05-20T03:42:53.126Z,2.80
2023-05-20T03:45:20.763Z,2.40
2023-05-20T03:47:48.443Z,2.83
2023-05-20T03:50:16.111Z,3.50
2023-05-20T03:52:43.694Z,3.07
2023-05-20T03:55:11.231Z,3.10
2023-05-20T03:57:38.855Z,3.77
2023-05-20T04:00:06.670Z,2.93
2023-05-20T04:02:34.397Z,2.67
2023-05-20T04:05:01.981Z,2.10
2023-05-20T04:07:29.613Z,3.10
2023-05-20T04:09:57.293Z,2.90
2023-05-20T04:12:24.889Z,3.37
2023-05-20T04:14:52.451Z,2.73
2023-05-20T04:17:20.033Z,2.63
2023-05-20T04:19:47.581Z,3.77
2023-05-20T04:22:15.190Z,3.07
2023-05-20T04:24:42.697Z,3.23
2023-05-20T04:27:10.353Z,3.10
2023-05-20T04:29:37.879Z,3.30
2023-05-20T04:32:05.853Z,2.90
2023-05-20T04:34:35.892Z,3.03
2023-05-20T04:37:03.621Z,3.67
2023-05-20T04:39:31.136Z,3.77
2023-05-20T04:41:58.758Z,2.50
2023-05-20T04:44:26.318Z,3.43
2023-05-20T04:46:53.981Z,3.47
2023-05-20T04:49:21.488Z,3.40
2023-05-20T04:51:49.100Z,2.93
2023-05-20T04:54:16.638Z,2.97
2023-05-20T04:56:47.263Z,3.20
2023-05-20T04:59:14.996Z,3.20
2023-05-20T05:01:42.751Z,3.23
2023-05-20T05:04:10.699Z,4.00
2023-05-20T05:06:38.246Z,2.60
2023-05-20T05:09:05.957Z,2.97
2023-05-20T05:11:33.497Z,2.93
2023-05-20T05:14:01.172Z,3.40
2023-05-20T05:16:28.750Z,3.10
2023-05-20T05:18:56.356Z,3.67
2023-05-20T05:21:23.938Z,3.27
2023-05-20T05:23:51.557Z,2.83
2023-05-20T05:26:19.195Z,3.07
2023-05-20T05:28:46.753Z,3.80
2023-05-20T05:31:14.354Z,2.60
2023-05-20T05:33:41.973Z,2.73
2023-05-20T05:36:09.525Z,3.10
2023-05-20T05:38:37.136Z,3.57
2023-05-20T05:41:04.711Z,3.63
2023-05-20T05:43:32.368Z,3.50
2023-05-20T05:45:59.895Z,3.10
2023-05-20T05:48:27.500Z,3.57
2023-05-20T05:50:55.032Z,3.77
2023-05-20T05:53:22.650Z,2.90
2023-05-20T05:55:50.192Z,2.90
2023-05-20T05:58:17.818Z,4.03
2023-05-20T06:00:45.383Z,3.90
2023-05-20T06:03:13.146Z,3.13
2023-05-20T06:05:40.789Z,3.93
2023-05-20T06:08:08.385Z,4.10
2023-05-20T06:10:35.974Z,3.70
2023-05-20T06:13:03.589Z,3.50
2023-05-20T06:15:31.149Z,3.20
2023-05-20T06:17:58.771Z,2.80
2023-05-20T06:20:26.429Z,2.90
2023-05-20T06:22:54.005Z,3.30
2023-05-20T06:25:21.535Z,2.47
2023-05-20T06:27:49.365Z,3.60
2023-05-20T06:30:17.033Z,3.30
2023-05-20T06:32:44.622Z,2.70
2023-05-20T06:35:12.195Z,2.63
2023-05-20T06:37:39.830Z,2.73
2023-05-20T06:40:07.868Z,3.07
2023-05-20T06:42:35.771Z,2.50
2023-05-20T06:45:03.423Z,2.63
2023-05-20T06:47:31.073Z,2.87
2023-05-20T06:49:58.655Z,3.00
2023-05-20T06:52:26.290Z,3.00
2023-05-20T06:54:53.832Z,2.70
2023-05-20T06:57:21.452Z,3.57
2023-05-20T06:59:49.000Z,2.80
2023-05-20T07:02:16.682Z,3.40
2023-05-20T07:04:44.344Z,2.80
2023-05-20T07:07:11.946Z,3.37
2023-05-20T07:09:39.530Z,3.63
2023-05-20T07:12:07.438Z,3.40
2023-05-20T07:14:35.112Z,3.23
2023-05-20T07:17:02.724Z,3.43
2023-05-20T07:19:30.390Z,2.60
2023-05-20T07:21:58.040Z,2.63
2023-05-20T07:24:25.578Z,3.00
2023-05-20T07:26:53.205Z,3.07
2023-05-20T07:29:20.746Z,3.17
2023-05-20T07:31:48.435Z,3.70
2023-05-20T07:34:16.098Z,3.13
2023-05-20T07:36:43.744Z,3.33
2023-05-20T07:39:15.007Z,2.97
2023-05-20T07:41:43.017Z,4.23
2023-05-20T07:44:10.556Z,3.80
2023-05-20T07:46:38.328Z,3.30
2023-05-20T07:49:06.489Z,2.80
2023-05-20T07:51:34.294Z,3.00
2023-05-20T07:54:01.841Z,3.20
2023-05-20T07:56:29.512Z,3.63
2023-05-20T07:58:57.947Z,3.10
2023-05-20T08:01:26.061Z,2.60
2023-05-20T08:03:54.149Z,3.60
2023-05-20T08:06:22.186Z,3.20
2023-05-20T08:08:49.737Z,3.03
2023-05-20T08:11:17.340Z,3.50
2023-05-20T08:13:44.898Z,2.90
2023-05-20T08:16:12.696Z,3.40
2023-05-20T08:18:40.424Z,3.17
2023-05-20T08:21:08.523Z,3.30
2023-05-20T08:23:38.767Z,3.50
2023-05-20T08:26:08.126Z,4.00
2023-05-20T08:28:35.759Z,4.00
2023-05-20T08:31:03.488Z,3.60
2023-05-20T08:33:31.211Z,3.43
2023-05-20T08:35:58.833Z,3.50
2023-05-20T08:38:26.389Z,4.17
2023-05-20T08:40:57.441Z,4.40
2023-05-20T08:43:25.442Z,3.33
2023-05-20T08:45:53.301Z,3.57
2023-05-20T08:48:23.320Z,4.30
2023-05-20T08:50:52.876Z,3.20
2023-05-20T08:53:22.831Z,3.87
2023-05-20T08:55:54.437Z,3.80
2023-05-20T08:58:22.695Z,3.73
2023-05-20T09:00:50.309Z,3.83
2023-05-20T09:03:18.151Z,3.37
2023-05-20T09:05:45.747Z,3.77
2023-05-20T09:08:13.682Z,5.07
2023-05-20T09:10:42.071Z,4.40
2023-05-20T09:13:10.340Z,5.23
2023-05-20T09:15:38.310Z,3.67
2023-05-20T09:18:07.661Z,3.77
2023-05-20T09:20:35.917Z,4.53
2023-05-20T09:23:04.517Z,4.30
2023-05-20T09:25:32.285Z,4.20
2023-05-20T09:28:00.109Z,4.27
2023-05-20T09:30:27.709Z,4.20
2023-05-20T09:32:59.756Z,4.57
2023-05-20T09:35:28.072Z,4.00
2023-05-20T09:37:56.650Z,4.50
2023-05-20T09:40:25.057Z,4.00
2023-05-20T09:42:52.578Z,4.40
2023-05-20T09:45:20.798Z,4.63
2023-05-20T09:47:48.347Z,4.33
2023-05-20T09:50:16.323Z,4.90
2023-05-20T09:52:44.616Z,5.10
2023-05-20T09:55:12.242Z,4.00
2023-05-20T09:57:39.824Z,3.93
2023-05-20T10:00:07.935Z,3.80
2023-05-20T10:02:36.461Z,5.07
2023-05-20T10:05:05.676Z,4.93
2023-05-20T10:07:42.756Z,4.40
2023-05-20T10:10:10.674Z,5.17
2023-05-20T10:13:04.342Z,4.73
2023-05-20T10:15:44.970Z,4.83
2023-05-20T10:18:22.288Z,4.90
2023-05-20T10:20:50.555Z,5.60
2023-05-20T10:23:24.837Z,5.70
2023-05-20T10:25:53.254Z,5.80
2023-05-20T10:28:29.714Z,4.53
2023-05-20T10:30:57.800Z,4.90
2023-05-20T10:33:26.786Z,6.03
2023-05-20T10:35:54.702Z,5.40
2023-05-20T10:38:25.858Z,4.67
2023-05-20T10:40:53.632Z,5.30
2023-05-20T10:43:27.952Z,5.47
2023-05-20T10:45:57.369Z,6.20
2023-05-20T10:48:34.289Z,5.10
2023-05-20T10:51:02.778Z,5.30
2023-05-20T10:53:34.586Z,6.53
2023-05-20T10:56:03.292Z,6.37
2023-05-20T10:58:39.641Z,5.80
2023-05-20T11:01:08.503Z,4.70
2023-05-20T11:03:36.573Z,5.97
2023-05-20T11:06:11.803Z,4.87
2023-05-20T11:08:39.473Z,5.93
2023-05-20T11:11:07.430Z,6.27
2023-05-20T11:13:35.067Z,4.50
2023-05-20T11:16:02.691Z,5.50
2023-05-20T11:18:30.317Z,5.53
2023-05-20T11:20:58.215Z,5.50
2023-05-20T11:23:27.054Z,5.70
2023-05-20T11:25:55.461Z,5.50
2023-05-20T11:28:23.887Z,5.93
2023-05-20T11:30:52.598Z,4.83
2023-05-20T11:33:20.488Z,6.30
2023-05-20T11:35:48.219Z,4.87
2023-05-20T11:38:15.965Z,4.83
2023-05-20T11:40:50.395Z,5.40
2023-05-20T11:43:19.216Z,6.53
2023-05-20T11:45:53.762Z,4.57
2023-05-20T11:48:21.867Z,5.20
2023-05-20T11:50:49.518Z,5.23
2023-05-20T11:53:18.060Z,5.43
2023-05-20T11:55:46.308Z,5.50
2023-05-20T11:58:16.435Z,5.20
2023-05-20T12:03:17.522Z,5.97
2023-05-20T12:05:45.359Z,4.93
2023-05-20T12:08:13.009Z,5.77
2023-05-20T12:10:40.628Z,5.17
2023-05-20T12:13:08.532Z,5.53
2023-05-20T12:15:36.624Z,5.13
2023-05-20T12:18:04.654Z,5.10
2023-05-20T12:20:32.664Z,4.57
2023-05-20T12:23:00.843Z,5.63
2023-05-20T12:25:28.762Z,5.03
2023-05-20T12:27:56.690Z,5.70
2023-05-20T12:30:24.556Z,5.30
2023-05-20T12:32:52.436Z,4.97
2023-05-20T12:35:27.173Z,5.43
2023-05-20T12:37:54.802Z,5.60
2023-05-20T12:40:22.431Z,5.77
2023-05-20T12:42:50.093Z,5.53
2023-05-20T12:45:17.653Z,5.67
2023-05-20T12:47:45.391Z,5.87
2023-05-20T12:50:12.973Z,5.40
2023-05-20T12:52:40.607Z,5.20
2023-05-20T12:55:10.920Z,6.70
2023-05-20T12:57:39.711Z,6.17
2023-05-20T13:00:08.197Z,5.73
2023-05-20T13:02:37.718Z,5.70
2023-05-20T13:05:06.876Z,5.90
2023-05-20T13:07:34.635Z,5.13
2023-05-20T13:10:02.306Z,5.10
2023-05-20T13:12:30.385Z,5.70
2023-05-20T13:14:58.084Z,5.23
2023-05-20T13:17:25.735Z,4.93
2023-05-20T13:19:53.375Z,5.30
2023-05-20T13:22:20.915Z,6.23
2023-05-20T13:24:48.560Z,4.43
2023-05-20T13:27:16.145Z,4.70
2023-05-20T13:29:43.872Z,5.00
2023-05-20T13:32:11.512Z,5.27
2023-05-20T13:34:39.165Z,4.40
2023-05-20T13:37:10.001Z,5.10
2023-05-20T13:39:40.833Z,4.93
2023-05-20T13:42:08.497Z,4.03
2023-05-20T13:44:36.097Z,4.43
2023-05-20T13:47:03.825Z,3.57
2023-05-20T13:49:31.490Z,3.93
2023-05-20T13:51:59.208Z,4.17
2023-05-20T13:54:26.857Z,9.60
2023-05-20T13:56:54.544Z,3.97
2023-05-20T13:59:22.073Z,4.13
2023-05-20T14:01:49.777Z,4.00
2023-05-20T14:04:17.323Z,3.87
2023-05-20T14:06:44.948Z,3.50
2023-05-20T14:09:12.527Z,4.20
2023-05-20T14:11:40.169Z,4.23
2023-05-20T14:14:07.735Z,4.37
2023-05-20T14:16:35.533Z,4.07
2023-05-20T14:19:03.147Z,4.10
2023-05-20T14:21:30.895Z,4.03
2023-05-20T14:23:59.291Z,3.80
2023-05-20T14:26:27.821Z,4.00
2023-05-20T14:28:55.420Z,4.23
2023-05-20T14:31:23.080Z,4.73
2023-05-20T14:33:50.691Z,4.40
2023-05-20T14:36:18.572Z,4.27
2023-05-20T14:38:47.583Z,3.90
2023-05-20T14:41:16.754Z,9.40
2023-05-20T14:43:44.330Z,4.57
2023-05-20T14:46:11.947Z,3.70
2023-05-20T14:48:39.604Z,2.90
2023-05-20T14:51:07.258Z,3.60
2023-05-20T14:53:34.814Z,3.17
2023-05-20T14:56:02.559Z,3.50
2023-05-20T14:58:30.112Z,3.33
2023-05-20T15:00:57.806Z,3.40
2023-05-20T15:03:25.443Z,3.67
2023-05-20T15:05:53.163Z,3.50
2023-05-20T15:08:20.722Z,3.60
2023-05-20T15:10:48.444Z,3.60
2023-05-20T15:13:15.988Z,3.40
2023-05-20T15:15:43.548Z,3.70
2023-05-20T15:18:11.209Z,3.33
2023-05-20T15:20:42.134Z,3.20
2023-05-20T15:23:09.915Z,3.73
2023-05-20T15:25:37.600Z,3.33
2023-05-20T15:28:05.472Z,2.93
2023-05-20T15:30:33.244Z,3.17
2023-05-20T15:33:01.328Z,2.77
2023-05-20T15:35:29.406Z,3.50
2023-05-20T15:37:57.100Z,3.23
2023-05-20T15:40:24.628Z,3.23
2023-05-20T15:42:53.482Z,3.23
2023-05-20T15:45:21.273Z,3.50
2023-05-20T15:47:48.969Z,3.13
2023-05-20T15:50:16.700Z,3.60
2023-05-20T15:52:44.340Z,3.07
2023-05-20T15:55:11.965Z,3.47
2023-05-20T15:57:39.599Z,3.67
2023-05-20T16:00:07.546Z,3.70
2023-05-20T16:02:36.548Z,3.20
2023-05-20T16:05:04.944Z,3.47
2023-05-20T16:07:32.658Z,3.20
2023-05-20T16:10:00.307Z,3.80
2023-05-20T16:12:28.100Z,3.53
2023-05-20T16:14:55.791Z,3.80
2023-05-20T16:17:23.486Z,4.10
2023-05-20T16:19:51.085Z,3.63
2023-05-20T16:22:18.850Z,3.47
2023-05-20T16:24:46.613Z,4.43
2023-05-20T16:27:14.251Z,5.43
2023-05-20T16:29:41.815Z,4.40
2023-05-20T16:32:09.506Z,4.53
2023-05-20T16:34:37.619Z,6.77
2023-05-20T16:37:05.311Z,4.87
2023-05-20T16:39:33.092Z,5.50
2023-05-20T16:42:00.728Z,4.20
2023-05-20T16:44:28.453Z,4.07
2023-05-20T16:46:56.031Z,4.30
2023-05-20T16:49:23.614Z,4.80
2023-05-20T16:51:51.254Z,4.33
2023-05-20T16:54:18.937Z,4.07
2023-05-20T16:56:46.615Z,4.10
2023-05-20T16:59:14.168Z,5.00
2023-05-20T17:01:41.885Z,5.50
2023-05-20T17:04:09.769Z,4.70
2023-05-20T17:06:37.471Z,4.17
2023-05-20T17:09:05.017Z,4.60
2023-05-20T17:11:32.613Z,4.70
2023-05-20T17:14:00.316Z,4.60
2023-05-20T17:16:28.028Z,4.67
2023-05-20T17:18:55.656Z,5.20
2023-05-20T17:21:23.325Z,5.10
2023-05-20T17:23:50.877Z,5.10
2023-05-20T17:26:18.555Z,4.80
2023-05-20T17:28:46.153Z,4.60
2023-05-20T17:31:13.769Z,4.53
2023-05-20T17:33:41.376Z,4.63
2023-05-20T17:36:09.056Z,4.03
2023-05-20T17:38:36.729Z,4.57
2023-05-20T17:41:04.379Z,5.27
2023-05-20T17:43:32.050Z,4.73
2023-05-20T17:45:59.702Z,4.53
2023-05-20T17:48:27.298Z,4.40
2023-05-20T17:50:54.895Z,4.47
2023-05-20T17:53:22.446Z,4.33
2023-05-20T17:55:50.037Z,3.97
2023-05-20T17:58:17.573Z,4.13
2023-05-20T18:00:45.164Z,3.67
2023-05-20T18:03:12.785Z,4.57
2023-05-20T18:05:40.407Z,4.43
2023-05-20T18:08:07.929Z,4.63
2023-05-20T18:10:36.469Z,4.90
2023-05-20T18:13:04.203Z,3.97
2023-05-20T18:15:32.124Z,4.47
2023-05-20T18:17:59.834Z,4.27
2023-05-20T18:20:27.728Z,4.57
2023-05-20T18:22:55.454Z,4.30
2023-05-20T18:25:23.303Z,3.60
2023-05-20T18:27:51.731Z,4.07
2023-05-20T18:30:19.369Z,4.00
2023-05-20T18:32:47.021Z,4.10
2023-05-20T18:35:14.822Z,4.50
2023-05-20T18:37:42.425Z,3.90
2023-05-20T18:40:10.301Z,4.20
2023-05-20T18:42:37.829Z,4.90
2023-05-20T18:45:05.804Z,4.53
2023-05-20T18:47:33.389Z,4.80
2023-05-20T18:50:01.011Z,4.93
2023-05-20T18:52:28.647Z,4.77
2023-05-20T18:54:56.287Z,4.40
2023-05-20T18:57:23.800Z,4.53
2023-05-20T18:59:51.544Z,4.43
2023-05-20T19:02:19.203Z,5.17
2023-05-20T19:04:47.012Z,4.17
2023-05-20T19:07:14.588Z,3.73
2023-05-20T19:09:42.316Z,5.07
2023-05-20T19:12:10.040Z,3.87
2023-05-20T19:14:37.589Z,4.77
2023-05-20T19:17:05.435Z,4.63
2023-05-20T19:19:33.251Z,4.10
2023-05-20T19:22:03.612Z,4.97
2023-05-20T19:24:31.215Z,5.20
2023-05-20T19:26:59.063Z,5.00
2023-05-20T19:29:26.705Z,4.70
2023-05-20T19:31:54.286Z,5.00
2023-05-20T19:34:21.908Z,4.70
2023-05-20T19:36:49.507Z,4.93
2023-05-20T19:39:17.545Z,4.83
2023-05-20T19:41:45.236Z,5.27
2023-05-20T19:44:15.974Z,4.77
2023-05-20T19:46:43.561Z,5.50
2023-05-20T19:49:11.220Z,5.40
2023-05-20T19:51:38.889Z,4.90
2023-05-20T19:54:06.465Z,5.53
2023-05-20T19:56:34.251Z,5.03
2023-05-20T19:59:02.019Z,5.30
2023-05-20T20:01:29.757Z,5.10
2023-05-20T20:03:57.372Z,4.93
2023-05-20T20:06:24.959Z,5.20
2023-05-20T20:08:52.510Z,4.97
2023-05-20T20:11:20.237Z,5.60
2023-05-20T20:13:47.850Z,5.60
2023-05-20T20:16:15.664Z,5.57
2023-05-20T20:18:43.558Z,5.77
2023-05-20T20:21:11.229Z,5.83
2023-05-20T20:23:38.791Z,6.20
2023-05-20T20:26:06.417Z,6.37
2023-05-20T20:28:34.122Z,6.07
2023-05-20T20:31:01.743Z,5.93
2023-05-20T20:33:29.294Z,6.73
2023-05-20T20:35:56.985Z,7.10
2023-05-20T20:38:24.625Z,7.40
2023-05-20T20:40:52.209Z,7.33
2023-05-20T20:43:21.233Z,7.40
2023-05-20T20:45:49.411Z,7.90
2023-05-20T20:48:17.071Z,7.73
2023-05-20T20:50:47.661Z,7.20
2023-05-20T20:53:15.996Z,8.30
2023-05-20T20:55:43.776Z,8.17
2023-05-20T20:58:11.371Z,8.80
2023-05-20T21:00:38.971Z,7.83
2023-05-20T21:03:09.620Z,8.37
2023-05-20T21:05:37.664Z,8.90
2023-05-20T21:08:06.014Z,8.83
2023-05-20T21:10:33.639Z,8.60
2023-05-20T21:13:01.204Z,8.67
2023-05-20T21:15:28.813Z,9.70
2023-05-20T21:17:56.420Z,9.07
2023-05-20T21:20:24.089Z,9.10
2023-05-20T21:22:51.658Z,9.80
2023-05-20T21:25:25.842Z,7.23
2023-05-20T21:27:53.535Z,9.97
2023-05-20T21:30:21.113Z,9.57
2023-05-20T21:32:48.761Z,9.90
2023-05-20T21:35:16.365Z,9.33
2023-05-20T21:37:43.977Z,9.80
2023-05-20T21:40:11.830Z,9.70
2023-05-20T21:42:39.474Z,9.37
2023-05-20T21:45:07.479Z,9.37
2023-05-20T21:47:35.187Z,9.40
2023-05-20T21:50:03.047Z,9.60
2023-05-20T21:52:30.596Z,10.73
2023-05-20T21:54:58.168Z,10.47
2023-05-20T21:57:25.763Z,10.30
2023-05-20T21:59:53.336Z,8.87
2023-05-20T22:02:21.042Z,10.43
2023-05-20T22:04:48.561Z,10.80
2023-05-20T22:07:16.194Z,9.57
2023-05-20T22:09:43.752Z,11.63
2023-05-20T22:12:11.549Z,11.17
2023-05-20T22:14:39.135Z,11.70
2023-05-20T22:17:06.788Z,12.20
2023-05-20T22:19:34.424Z,11.53
2023-05-20T22:22:02.112Z,11.37
2023-05-20T22:24:29.646Z,10.87
2023-05-20T22:26:57.250Z,10.73
2023-05-20T22:29:24.776Z,11.73
2023-05-20T22:31:52.490Z,11.80
2023-05-20T22:34:20.165Z,11.87
2023-05-20T22:36:47.729Z,11.20
2023-05-20T22:39:15.395Z,11.77
2023-05-20T22:41:42.988Z,11.10
2023-05-20T22:44:10.541Z,11.53
2023-05-20T22:46:38.183Z,11.47
2023-05-20T22:49:05.827Z,11.60
2023-05-20T22:51:33.468Z,11.67
2023-05-20T22:54:00.995Z,11.07
2023-05-20T22:56:28.607Z,10.30
2023-05-20T22:58:56.094Z,12.33
2023-05-20T23:01:23.715Z,11.97
2023-05-20T23:03:51.301Z,12.17
2023-05-20T23:06:18.925Z,11.87
2023-05-20T23:08:46.427Z,11.70
2023-05-20T23:11:14.089Z,13.00
2023-05-20T23:13:41.606Z,11.90
2023-05-20T23:16:09.177Z,12.63
2023-05-20T23:18:36.784Z,12.07
2023-05-20T23:21:04.435Z,10.53
2023-05-20T23:23:32.328Z,12.37
2023-05-20T23:26:00.286Z,12.77
2023-05-20T23:28:27.914Z,12.13
2023-05-20T23:30:55.536Z,9.23
2023-05-20T23:33:25.130Z,11.00
2023-05-20T23:35:53.640Z,12.23
2023-05-20T23:38:21.367Z,11.73
2023-05-20T23:40:49.398Z,12.33
2023-05-20T23:43:17.006Z,10.80
2023-05-20T23:45:44.655Z,11.97
2023-05-20T23:48:12.223Z,11.83
2023-05-20T23:50:40.089Z,11.93
2023-05-20T23:53:07.670Z,10.80
2023-05-20T23:55:35.580Z,11.97
2023-05-20T23:58:03.415Z,11.43
